createdAt,value
2018-07-26T00:02:09.242Z,19.90
2018-07-26T00:04:36.668Z,20.24
2018-07-26T00:07:04.197Z,20.11
2018-07-26T00:09:31.341Z,19.80
2018-07-26T00:11:58.501Z,19.59
2018-07-26T00:14:25.662Z,19.09
2018-07-26T00:16:52.803Z,19.32
2018-07-26T00:19:19.943Z,19.63
2018-07-26T00:21:47.150Z,19.64
2018-07-26T00:24:14.218Z,19.73
2018-07-26T00:26:41.380Z,19.92
2018-07-26T00:29:08.493Z,20.15
2018-07-26T00:31:35.619Z,19.96
2018-07-26T00:34:02.768Z,19.73
2018-07-26T00:36:29.932Z,19.97
2018-07-26T00:38:57.097Z,19.32
2018-07-26T00:41:24.296Z,19.46
2018-07-26T00:43:51.363Z,18.86
2018-07-26T00:46:18.479Z,19.37
2018-07-26T00:48:45.687Z,18.90
2018-07-26T00:51:12.849Z,18.99
2018-07-26T00:53:39.983Z,18.94
2018-07-26T00:56:07.148Z,19.09
2018-07-26T00:58:34.315Z,19.18
2018-07-26T01:01:01.465Z,19.26
2018-07-26T01:03:28.613Z,19.17
2018-07-26T01:05:55.779Z,19.26
2018-07-26T01:08:22.953Z,19.33
2018-07-26T01:10:50.155Z,19.53
2018-07-26T01:13:17.306Z,19.60
2018-07-26T01:15:44.438Z,19.20
2018-07-26T01:18:11.581Z,19.52
2018-07-26T01:20:38.729Z,19.23
2018-07-26T01:23:05.896Z,18.55
2018-07-26T01:25:33.005Z,18.89
2018-07-26T01:28:00.192Z,18.78
2018-07-26T01:30:27.324Z,18.42
2018-07-26T01:32:54.479Z,18.48
2018-07-26T01:35:21.623Z,18.58
2018-07-26T01:37:48.779Z,18.45
2018-07-26T01:40:15.940Z,18.81
2018-07-26T01:42:54.537Z,18.89
2018-07-26T01:45:21.672Z,18.23
2018-07-26T01:47:48.809Z,18.46
2018-07-26T01:50:15.935Z,17.94
2018-07-26T01:52:43.100Z,17.99
2018-07-26T01:55:10.246Z,18.43
2018-07-26T01:57:37.415Z,18.73
2018-07-26T02:00:05.489Z,17.90
2018-07-26T02:02:32.652Z,18.01
2018-07-26T02:04:59.806Z,18.26
2018-07-26T02:07:26.928Z,18.34
2018-07-26T02:09:54.061Z,17.89
2018-07-26T02:12:21.225Z,17.50
2018-07-26T02:14:48.353Z,18.19
2018-07-26T02:17:15.539Z,18.33
2018-07-26T02:19:42.673Z,18.39
2018-07-26T02:22:09.867Z,18.15
2018-07-26T02:24:37.073Z,18.20
2018-07-26T02:27:04.532Z,18.32
2018-07-26T02:29:31.683Z,18.70
2018-07-26T02:31:58.801Z,18.60
2018-07-26T02:34:25.947Z,18.69
2018-07-26T02:36:53.166Z,18.07
2018-07-26T02:39:20.336Z,18.00
2018-07-26T02:41:47.521Z,18.35
2018-07-26T02:44:14.626Z,18.33
2018-07-26T02:46:41.769Z,18.23
2018-07-26T02:49:08.895Z,18.35
2018-07-26T02:51:36.028Z,18.51
2018-07-26T02:54:03.200Z,18.10
2018-07-26T02:56:30.940Z,17.43
2018-07-26T02:58:58.196Z,17.22
2018-07-26T03:01:25.389Z,17.64
2018-07-26T03:03:52.488Z,17.88
2018-07-26T03:06:19.616Z,17.92
2018-07-26T03:08:46.752Z,18.16
2018-07-26T03:11:13.834Z,18.15
2018-07-26T03:13:40.972Z,18.07
2018-07-26T03:16:08.072Z,18.18
2018-07-26T03:18:35.277Z,17.60
2018-07-26T03:21:02.444Z,17.18
2018-07-26T03:23:29.571Z,16.86
2018-07-26T03:25:56.665Z,16.87
2018-07-26T03:28:23.826Z,17.08
2018-07-26T03:30:50.933Z,17.30
2018-07-26T03:33:18.079Z,17.39
2018-07-26T03:35:45.176Z,17.43
2018-07-26T03:38:12.375Z,17.53
2018-07-26T03:40:39.487Z,17.20
2018-07-26T03:43:06.655Z,17.04
2018-07-26T03:45:33.812Z,17.09
2018-07-26T03:48:00.964Z,17.57
2018-07-26T03:50:28.119Z,17.50
2018-07-26T03:52:55.300Z,17.66
2018-07-26T03:55:22.426Z,17.64
2018-07-26T03:57:49.594Z,17.14
2018-07-26T04:00:16.769Z,17.03
2018-07-26T04:02:43.972Z,17.25
2018-07-26T04:05:11.121Z,17.23
2018-07-26T04:07:38.430Z,17.18
2018-07-26T04:10:05.717Z,17.40
2018-07-26T04:12:32.976Z,17.49
2018-07-26T04:15:00.138Z,17.48
2018-07-26T04:17:27.296Z,17.66
2018-07-26T04:19:54.396Z,17.88
2018-07-26T04:22:21.540Z,17.68
2018-07-26T04:24:48.663Z,17.72
2018-07-26T04:27:15.806Z,17.84
2018-07-26T04:29:42.941Z,17.84
2018-07-26T04:32:10.138Z,18.08
2018-07-26T04:34:37.480Z,18.19
2018-07-26T04:37:04.671Z,18.07
2018-07-26T04:39:31.887Z,18.09
2018-07-26T04:41:59.068Z,18.16
2018-07-26T04:44:26.183Z,17.99
2018-07-26T04:46:53.313Z,18.26
2018-07-26T04:49:20.488Z,17.93
2018-07-26T04:51:47.642Z,17.92
2018-07-26T04:54:14.772Z,18.17
2018-07-26T04:56:41.919Z,18.38
2018-07-26T04:59:09.061Z,18.67
2018-07-26T05:01:36.217Z,18.83
2018-07-26T05:04:03.404Z,18.90
2018-07-26T05:06:30.524Z,18.59
2018-07-26T05:08:57.747Z,18.92
2018-07-26T05:11:24.850Z,19.13
2018-07-26T05:13:51.997Z,19.19
2018-07-26T05:16:19.172Z,19.39
2018-07-26T05:18:46.381Z,19.63
2018-07-26T05:21:13.535Z,19.85
2018-07-26T05:23:40.672Z,19.98
2018-07-26T05:26:07.867Z,19.76
2018-07-26T05:28:35.043Z,19.97
2018-07-26T05:31:02.214Z,20.02
2018-07-26T05:33:29.391Z,20.04
2018-07-26T05:35:56.506Z,20.23
2018-07-26T05:38:23.653Z,20.36
2018-07-26T05:40:50.777Z,20.55
2018-07-26T05:43:17.936Z,20.83
2018-07-26T05:45:45.017Z,20.96
2018-07-26T05:48:12.276Z,21.05
2018-07-26T05:50:39.455Z,21.22
2018-07-26T05:53:06.633Z,21.30
2018-07-26T05:55:33.764Z,21.61
2018-07-26T05:58:00.916Z,21.74
2018-07-26T06:00:28.096Z,21.62
2018-07-26T06:02:55.217Z,21.88
2018-07-26T06:05:22.311Z,22.05
2018-07-26T06:07:49.461Z,22.16
2018-07-26T06:10:16.586Z,22.36
2018-07-26T06:12:43.764Z,22.43
2018-07-26T06:15:12.064Z,22.65
2018-07-26T06:17:39.684Z,22.82
2018-07-26T06:20:08.536Z,23.12
2018-07-26T06:22:35.652Z,23.24
2018-07-26T06:25:03.561Z,23.54
2018-07-26T06:27:30.729Z,23.47
2018-07-26T06:29:57.864Z,23.58
2018-07-26T06:32:25.000Z,23.85
2018-07-26T06:34:52.216Z,23.92
2018-07-26T06:37:19.391Z,24.22
2018-07-26T06:39:46.562Z,24.37
2018-07-26T06:42:13.685Z,24.61
2018-07-26T06:44:40.830Z,24.81
2018-07-26T06:47:08.036Z,24.76
2018-07-26T06:49:35.182Z,24.80
2018-07-26T06:52:02.428Z,25.07
2018-07-26T06:54:29.564Z,25.13
2018-07-26T06:56:56.731Z,25.38
2018-07-26T06:59:23.932Z,25.45
2018-07-26T07:01:51.101Z,25.55
2018-07-26T07:04:18.231Z,25.84
2018-07-26T07:06:45.361Z,25.94
2018-07-26T07:09:12.571Z,26.14
2018-07-26T07:11:40.017Z,26.46
2018-07-26T07:14:07.296Z,25.92
2018-07-26T07:16:34.416Z,26.31
2018-07-26T07:19:01.565Z,25.87
2018-07-26T07:21:28.759Z,26.56
2018-07-26T07:23:55.896Z,26.41
2018-07-26T07:26:23.069Z,26.58
2018-07-26T07:28:50.204Z,26.69
2018-07-26T07:31:17.285Z,26.40
2018-07-26T07:33:44.448Z,27.03
2018-07-26T07:36:11.617Z,26.96
2018-07-26T07:38:38.754Z,27.39
2018-07-26T07:41:06.053Z,27.49
2018-07-26T07:43:33.192Z,27.13
2018-07-26T07:46:00.279Z,27.31
2018-07-26T07:48:27.385Z,27.43
2018-07-26T07:50:54.532Z,27.27
2018-07-26T07:53:21.678Z,27.73
2018-07-26T07:55:48.855Z,28.01
2018-07-26T07:58:16.001Z,28.15
2018-07-26T08:00:43.137Z,28.32
2018-07-26T08:03:10.351Z,28.15
2018-07-26T08:05:37.511Z,28.49
2018-07-26T08:08:04.909Z,28.22
2018-07-26T08:10:32.181Z,28.11
2018-07-26T08:12:59.336Z,28.53
2018-07-26T08:15:26.437Z,28.18
2018-07-26T08:17:53.569Z,28.15
2018-07-26T08:20:20.664Z,28.72
2018-07-26T08:22:47.817Z,28.79
2018-07-26T08:25:15.008Z,28.61
2018-07-26T08:27:42.152Z,28.63
2018-07-26T08:30:10.417Z,28.48
2018-07-26T08:32:38.439Z,28.77
2018-07-26T08:35:05.908Z,29.03
2018-07-26T08:37:33.148Z,28.66
2018-07-26T08:40:00.387Z,28.68
2018-07-26T08:42:27.533Z,28.99
2018-07-26T08:44:54.707Z,29.09
2018-07-26T08:47:21.910Z,28.89
2018-07-26T08:49:49.094Z,28.76
2018-07-26T08:52:16.241Z,28.63
2018-07-26T08:54:43.415Z,28.24
2018-07-26T08:57:10.624Z,28.57
2018-07-26T08:59:37.798Z,28.72
2018-07-26T09:02:05.600Z,28.99
2018-07-26T09:04:32.742Z,28.94
2018-07-26T09:06:59.872Z,28.98
2018-07-26T09:09:27.020Z,29.06
2018-07-26T09:11:54.161Z,29.37
2018-07-26T09:14:21.305Z,29.42
2018-07-26T09:16:48.427Z,29.18
2018-07-26T09:19:15.559Z,29.66
2018-07-26T09:21:42.793Z,29.81
2018-07-26T09:24:09.908Z,29.75
2018-07-26T09:26:37.091Z,29.69
2018-07-26T09:29:04.265Z,29.75
2018-07-26T09:31:31.385Z,30.06
2018-07-26T09:33:58.597Z,30.24
2018-07-26T09:36:25.702Z,30.09
2018-07-26T09:38:52.900Z,30.41
2018-07-26T09:41:20.044Z,29.54
2018-07-26T09:43:47.198Z,28.82
2018-07-26T09:46:14.704Z,29.10
2018-07-26T09:48:42.073Z,29.57
2018-07-26T09:51:09.240Z,29.67
2018-07-26T09:53:36.404Z,29.95
2018-07-26T09:56:03.843Z,29.51
2018-07-26T09:58:30.969Z,29.63
2018-07-26T10:01:03.937Z,29.59
2018-07-26T10:03:31.104Z,29.97
2018-07-26T10:05:58.204Z,30.30
2018-07-26T10:08:25.384Z,30.05
2018-07-26T10:10:52.525Z,30.32
2018-07-26T10:13:19.692Z,30.34
2018-07-26T10:15:46.924Z,30.66
2018-07-26T10:18:14.101Z,30.69
2018-07-26T10:20:41.273Z,30.29
2018-07-26T10:23:08.432Z,30.14
2018-07-26T10:25:36.162Z,30.40
2018-07-26T10:28:03.345Z,30.21
2018-07-26T10:30:30.548Z,30.85
2018-07-26T10:32:57.808Z,30.93
2018-07-26T10:35:24.940Z,31.17
2018-07-26T10:37:52.090Z,31.21
2018-07-26T10:40:19.266Z,31.30
2018-07-26T10:42:46.447Z,31.70
2018-07-26T10:45:13.600Z,32.16
2018-07-26T10:47:40.732Z,31.01
2018-07-26T10:50:08.921Z,31.12
2018-07-26T10:52:36.153Z,30.28
2018-07-26T10:55:06.052Z,30.81
2018-07-26T10:57:33.468Z,30.71
2018-07-26T11:00:00.626Z,31.20
2018-07-26T11:02:27.826Z,31.88
2018-07-26T11:04:54.988Z,32.07
2018-07-26T11:07:22.187Z,31.78
2018-07-26T11:09:49.415Z,31.60
2018-07-26T11:12:16.591Z,30.99
2018-07-26T11:14:43.755Z,31.50
2018-07-26T11:17:11.435Z,31.99
2018-07-26T11:19:38.602Z,32.36
2018-07-26T11:22:05.803Z,32.76
2018-07-26T11:24:33.013Z,32.37
2018-07-26T11:27:00.239Z,32.12
2018-07-26T11:29:27.499Z,32.63
2018-07-26T11:31:54.654Z,32.21
2018-07-26T11:34:21.902Z,32.70
2018-07-26T11:36:49.119Z,33.30
2018-07-26T11:39:16.406Z,32.68
2018-07-26T11:41:43.636Z,32.78
2018-07-26T11:44:10.861Z,33.15
2018-07-26T11:46:37.997Z,33.05
2018-07-26T11:49:05.193Z,33.28
2018-07-26T11:51:32.345Z,33.46
2018-07-26T11:53:59.528Z,33.68
2018-07-26T11:56:26.687Z,33.26
2018-07-26T11:58:53.973Z,32.89
2018-07-26T12:01:21.208Z,33.81
2018-07-26T12:03:48.394Z,33.83
2018-07-26T12:06:15.557Z,33.24
2018-07-26T12:08:42.825Z,33.93
2018-07-26T12:11:10.063Z,34.78
2018-07-26T12:13:37.288Z,34.47
2018-07-26T12:16:04.521Z,33.56
2018-07-26T12:18:31.730Z,34.36
2018-07-26T12:20:58.964Z,34.77
2018-07-26T12:23:26.147Z,34.69
2018-07-26T12:25:53.350Z,34.25
2018-07-26T12:28:20.524Z,34.67
2018-07-26T12:30:47.714Z,34.63
2018-07-26T12:33:14.892Z,33.72
2018-07-26T12:35:42.127Z,33.32
2018-07-26T12:38:09.555Z,33.88
2018-07-26T12:40:36.707Z,33.94
2018-07-26T12:43:03.891Z,33.55
2018-07-26T12:45:31.085Z,34.04
2018-07-26T12:47:58.251Z,33.03
2018-07-26T12:50:25.411Z,32.42
2018-07-26T12:52:52.630Z,31.78
2018-07-26T12:55:19.842Z,31.47
2018-07-26T12:57:47.048Z,31.28
2018-07-26T13:00:15.239Z,30.83
2018-07-26T13:02:42.444Z,31.40
2018-07-26T13:05:09.638Z,32.26
2018-07-26T13:07:36.864Z,32.43
2018-07-26T13:10:05.036Z,32.82
2018-07-26T13:12:32.303Z,33.10
2018-07-26T13:14:59.643Z,32.37
2018-07-26T13:17:26.782Z,32.73
2018-07-26T13:19:53.954Z,32.55
2018-07-26T13:22:21.288Z,33.36
2018-07-26T13:24:49.212Z,33.77
2018-07-26T13:27:16.461Z,33.74
2018-07-26T13:29:43.724Z,33.69
2018-07-26T13:32:10.954Z,34.24
2018-07-26T13:34:38.309Z,35.04
2018-07-26T13:37:05.455Z,34.81
2018-07-26T13:39:32.618Z,34.46
2018-07-26T13:41:59.804Z,33.94
2018-07-26T13:44:27.002Z,32.99
2018-07-26T13:46:54.158Z,32.44
2018-07-26T13:49:21.353Z,32.55
2018-07-26T13:51:48.541Z,31.84
2018-07-26T13:54:15.667Z,31.52
2018-07-26T13:56:42.854Z,31.13
2018-07-26T13:59:09.986Z,30.92
2018-07-26T14:01:37.252Z,30.87
2018-07-26T14:04:04.434Z,31.75
2018-07-26T14:06:31.601Z,32.95
2018-07-26T14:08:58.802Z,32.99
2018-07-26T14:11:25.969Z,33.50
2018-07-26T14:13:53.199Z,33.47
2018-07-26T14:16:20.361Z,33.11
2018-07-26T14:18:47.590Z,33.42
2018-07-26T14:21:14.739Z,34.30
2018-07-26T14:23:41.991Z,34.54
2018-07-26T14:26:10.877Z,35.13
2018-07-26T14:28:38.119Z,35.59
2018-07-26T14:31:05.456Z,33.72
2018-07-26T14:33:32.667Z,33.82
2018-07-26T14:35:59.853Z,33.83
2018-07-26T14:38:27.015Z,35.10
2018-07-26T14:40:54.294Z,34.88
2018-07-26T14:43:21.609Z,33.41
2018-07-26T14:45:48.875Z,32.68
2018-07-26T14:48:16.034Z,31.98
2018-07-26T14:50:43.167Z,33.09
2018-07-26T14:53:10.363Z,32.39
2018-07-26T14:55:37.517Z,32.37
2018-07-26T14:58:04.829Z,32.62
2018-07-26T15:00:32.018Z,32.22
2018-07-26T15:02:59.313Z,32.12
2018-07-26T15:05:26.518Z,31.86
2018-07-26T15:07:53.734Z,31.61
2018-07-26T15:10:20.902Z,31.49
2018-07-26T15:12:48.112Z,31.48
2018-07-26T15:15:15.374Z,31.18
2018-07-26T15:17:42.512Z,31.63
2018-07-26T15:20:09.662Z,31.43
2018-07-26T15:22:36.884Z,31.15
2018-07-26T15:25:05.285Z,31.59
2018-07-26T15:27:32.453Z,31.89
2018-07-26T15:29:59.672Z,32.43
2018-07-26T15:32:26.860Z,32.78
2018-07-26T15:34:54.025Z,32.79
2018-07-26T15:37:21.177Z,32.63
2018-07-26T15:39:48.384Z,32.76
2018-07-26T15:42:15.543Z,33.29
2018-07-26T15:44:42.814Z,33.60
2018-07-26T15:47:10.016Z,34.08
2018-07-26T15:49:37.231Z,34.19
2018-07-26T15:52:04.496Z,34.01
2018-07-26T15:54:31.757Z,33.87
2018-07-26T15:56:58.984Z,33.73
2018-07-26T15:59:26.178Z,32.74
2018-07-26T16:01:53.351Z,32.36
2018-07-26T16:04:20.543Z,32.17
2018-07-26T16:06:47.689Z,32.14
2018-07-26T16:09:14.907Z,32.03
2018-07-26T16:11:42.168Z,31.84
2018-07-26T16:14:10.478Z,31.48
2018-07-26T16:16:37.766Z,31.34
2018-07-26T16:19:05.001Z,31.49
2018-07-26T16:21:32.161Z,31.65
2018-07-26T16:23:59.400Z,31.50
2018-07-26T16:26:26.593Z,31.36
2018-07-26T16:28:53.753Z,31.14
2018-07-26T16:31:20.894Z,31.04
2018-07-26T16:33:48.052Z,31.09
2018-07-26T16:36:15.232Z,30.97
2018-07-26T16:38:42.397Z,30.84
2018-07-26T16:41:09.616Z,30.70
2018-07-26T16:43:36.754Z,30.58
2018-07-26T16:46:04.180Z,30.47
2018-07-26T16:48:31.374Z,30.41
2018-07-26T16:50:58.506Z,30.41
2018-07-26T16:53:25.693Z,30.46
2018-07-26T16:55:52.905Z,30.57
2018-07-26T16:58:20.151Z,30.17
2018-07-26T17:00:47.357Z,30.19
2018-07-26T17:03:14.585Z,30.08
2018-07-26T17:05:41.774Z,29.64
2018-07-26T17:08:08.872Z,30.00
2018-07-26T17:10:36.067Z,29.72
2018-07-26T17:13:03.306Z,29.83
2018-07-26T17:15:30.523Z,29.72
2018-07-26T17:17:57.739Z,29.55
2018-07-26T17:20:24.994Z,29.43
2018-07-26T17:22:52.240Z,29.53
2018-07-26T17:25:23.598Z,29.51
2018-07-26T17:27:50.974Z,29.37
2018-07-26T17:30:18.143Z,29.49
2018-07-26T17:32:45.436Z,29.42
2018-07-26T17:35:12.687Z,29.41
2018-07-26T17:37:39.881Z,29.41
2018-07-26T17:40:07.143Z,29.21
2018-07-26T17:42:34.260Z,29.18
2018-07-26T17:45:01.505Z,29.11
2018-07-26T17:47:28.628Z,28.96
2018-07-26T17:49:55.822Z,28.99
2018-07-26T17:52:22.998Z,29.04
2018-07-26T17:54:50.175Z,28.83
2018-07-26T17:57:17.324Z,28.91
2018-07-26T17:59:44.793Z,28.98
2018-07-26T18:02:11.953Z,28.84
2018-07-26T18:04:39.104Z,28.78
2018-07-26T18:07:06.256Z,28.84
2018-07-26T18:09:33.435Z,28.81
2018-07-26T18:12:00.629Z,28.76
2018-07-26T18:14:27.773Z,28.58
2018-07-26T18:16:54.957Z,28.51
2018-07-26T18:19:22.133Z,28.51
2018-07-26T18:21:49.257Z,28.39
2018-07-26T18:24:16.427Z,28.15
2018-07-26T18:26:43.596Z,28.07
2018-07-26T18:29:10.788Z,28.19
2018-07-26T18:31:38.022Z,27.98
2018-07-26T18:34:05.257Z,27.86
2018-07-26T18:36:32.439Z,27.89
2018-07-26T18:38:59.550Z,27.76
2018-07-26T18:41:26.724Z,27.71
2018-07-26T18:43:54.094Z,27.76
2018-07-26T18:46:21.260Z,27.61
2018-07-26T18:48:48.419Z,27.65
2018-07-26T18:51:16.555Z,27.49
2018-07-26T18:53:43.741Z,27.64
2018-07-26T18:56:11.031Z,27.58
2018-07-26T18:58:38.176Z,27.46
2018-07-26T19:01:05.592Z,27.32
2018-07-26T19:03:32.733Z,27.48
2018-07-26T19:05:59.913Z,27.33
2018-07-26T19:08:27.084Z,27.31
2018-07-26T19:10:54.269Z,27.23
2018-07-26T19:13:21.450Z,27.36
2018-07-26T19:15:48.617Z,27.07
2018-07-26T19:18:15.777Z,27.33
2018-07-26T19:20:42.965Z,27.27
2018-07-26T19:23:10.176Z,27.25
2018-07-26T19:25:37.403Z,27.13
2018-07-26T19:28:04.767Z,27.08
2018-07-26T19:30:32.009Z,27.02
2018-07-26T19:32:59.134Z,27.08
2018-07-26T19:35:26.536Z,27.18
2018-07-26T19:37:53.706Z,27.16
2018-07-26T19:40:20.858Z,27.07
2018-07-26T19:42:48.681Z,26.92
2018-07-26T19:45:16.222Z,26.69
2018-07-26T19:47:43.556Z,26.75
2018-07-26T19:50:10.961Z,26.67
2018-07-26T19:52:38.312Z,26.56
2018-07-26T19:55:08.815Z,26.45
2018-07-26T19:57:35.985Z,26.31
2018-07-26T20:00:04.256Z,26.38
2018-07-26T20:02:31.446Z,26.25
2018-07-26T20:04:58.680Z,26.38
2018-07-26T20:07:26.567Z,26.40
2018-07-26T20:09:53.788Z,26.38
2018-07-26T20:12:21.037Z,26.36
2018-07-26T20:14:48.195Z,26.37
2018-07-26T20:17:15.398Z,26.34
2018-07-26T20:19:42.748Z,26.29
2018-07-26T20:22:10.188Z,26.37
2018-07-26T20:24:37.477Z,26.35
2018-07-26T20:27:04.687Z,26.11
2018-07-26T20:29:31.932Z,26.15
2018-07-26T20:31:59.502Z,26.16
2018-07-26T20:34:26.663Z,26.15
2018-07-26T20:36:53.861Z,26.17
2018-07-26T20:39:21.105Z,26.06
2018-07-26T20:41:48.356Z,25.88
2018-07-26T20:44:15.612Z,25.48
2018-07-26T20:46:42.777Z,25.33
2018-07-26T20:49:09.922Z,25.08
2018-07-26T20:51:37.268Z,25.07
2018-07-26T20:54:04.607Z,24.80
2018-07-26T20:56:31.716Z,24.93
2018-07-26T20:58:58.825Z,24.96
2018-07-26T21:01:26.054Z,24.90
2018-07-26T21:03:53.239Z,25.06
2018-07-26T21:06:20.397Z,24.99
2018-07-26T21:08:47.518Z,24.64
2018-07-26T21:11:14.683Z,24.61
2018-07-26T21:13:42.169Z,24.67
2018-07-26T21:16:09.377Z,24.71
2018-07-26T21:18:36.527Z,24.56
2018-07-26T21:21:03.765Z,24.61
2018-07-26T21:23:30.920Z,24.34
2018-07-26T21:25:58.167Z,24.38
2018-07-26T21:28:25.239Z,24.11
2018-07-26T21:30:52.426Z,24.02
2018-07-26T21:33:19.560Z,24.22
2018-07-26T21:35:46.749Z,24.45
2018-07-26T21:38:13.908Z,24.29
2018-07-26T21:40:41.102Z,24.26
2018-07-26T21:43:08.188Z,24.31
2018-07-26T21:45:35.459Z,24.43
2018-07-26T21:48:02.653Z,24.52
2018-07-26T21:50:29.811Z,24.55
2018-07-26T21:52:57.107Z,24.62
2018-07-26T21:55:24.264Z,24.59
2018-07-26T21:57:51.493Z,24.42
2018-07-26T22:00:18.643Z,24.59
2018-07-26T22:02:45.880Z,24.17
2018-07-26T22:05:12.985Z,24.09
2018-07-26T22:07:40.124Z,24.00
2018-07-26T22:10:07.389Z,24.09
2018-07-26T22:12:34.475Z,24.07
2018-07-26T22:15:01.665Z,24.20
2018-07-26T22:17:28.765Z,24.14
2018-07-26T22:19:55.852Z,23.93
2018-07-26T22:22:23.010Z,24.00
2018-07-26T22:24:50.137Z,24.10
2018-07-26T22:27:17.269Z,24.08
2018-07-26T22:29:44.408Z,23.83
2018-07-26T22:32:11.575Z,23.88
2018-07-26T22:34:38.730Z,23.87
2018-07-26T22:37:05.958Z,23.96
2018-07-26T22:39:33.092Z,23.83
2018-07-26T22:42:00.249Z,23.85
2018-07-26T22:44:27.345Z,23.93
2018-07-26T22:46:54.524Z,23.86
2018-07-26T22:49:21.643Z,23.17
2018-07-26T22:51:48.813Z,22.54
2018-07-26T22:54:15.931Z,22.69
2018-07-26T22:56:43.102Z,22.78
2018-07-26T22:59:10.221Z,22.69
2018-07-26T23:01:37.380Z,22.85
2018-07-26T23:04:04.608Z,22.51
2018-07-26T23:06:31.801Z,22.54
2018-07-26T23:08:58.989Z,22.77
2018-07-26T23:11:26.144Z,22.88
2018-07-26T23:13:53.344Z,22.79
2018-07-26T23:16:20.516Z,22.74
2018-07-26T23:18:47.677Z,22.95
2018-07-26T23:21:14.837Z,22.90
2018-07-26T23:23:41.912Z,22.67
2018-07-26T23:26:09.100Z,22.47
2018-07-26T23:28:36.197Z,22.24
2018-07-26T23:31:03.372Z,22.43
2018-07-26T23:33:30.485Z,22.27
2018-07-26T23:35:57.648Z,22.30
2018-07-26T23:38:24.759Z,21.79
2018-07-26T23:40:51.871Z,21.65
2018-07-26T23:43:19.019Z,21.52
2018-07-26T23:45:46.140Z,21.81
2018-07-26T23:48:14.517Z,21.90
2018-07-26T23:50:41.696Z,21.99
2018-07-26T23:53:08.827Z,21.92
2018-07-26T23:55:35.976Z,21.97
2018-07-26T23:58:03.113Z,22.17
